createdAt,value
2017-12-08T00:00:08.430Z,7.40
2017-12-08T00:02:35.236Z,6.57
2017-12-08T00:05:02.022Z,7.00
2017-12-08T00:07:28.810Z,6.40
2017-12-08T00:09:55.580Z,6.97
2017-12-08T00:12:22.389Z,5.73
2017-12-08T00:14:49.231Z,6.70
2017-12-08T00:17:16.015Z,6.03
2017-12-08T00:19:42.788Z,6.60
2017-12-08T00:22:09.558Z,6.37
2017-12-08T00:24:36.338Z,6.30
2017-12-08T00:27:03.104Z,6.50
2017-12-08T00:29:29.875Z,6.13
2017-12-08T00:31:56.789Z,6.30
2017-12-08T00:34:23.666Z,6.30
2017-12-08T00:36:50.583Z,5.63
2017-12-08T00:39:17.372Z,5.50
2017-12-08T00:41:44.349Z,5.60
2017-12-08T00:44:11.161Z,5.17
2017-12-08T00:46:38.043Z,5.87
2017-12-08T00:49:04.887Z,4.67
2017-12-08T00:51:31.714Z,5.77
2017-12-08T00:53:58.491Z,5.30
2017-12-08T00:56:25.294Z,5.00
2017-12-08T00:58:52.040Z,5.47
2017-12-08T01:01:18.815Z,4.67
2017-12-08T01:03:45.584Z,5.33
2017-12-08T01:06:12.364Z,4.83
2017-12-08T01:08:39.149Z,4.90
2017-12-08T01:11:06.161Z,5.13
2017-12-08T01:13:33.030Z,4.50
2017-12-08T01:15:59.894Z,5.13
2017-12-08T01:18:26.743Z,5.27
2017-12-08T01:20:53.485Z,5.23
2017-12-08T01:23:20.334Z,5.00
2017-12-08T01:25:47.125Z,4.63
2017-12-08T01:28:13.858Z,4.80
2017-12-08T01:30:40.641Z,4.57
2017-12-08T01:33:07.389Z,4.50
2017-12-08T01:35:34.166Z,4.53
2017-12-08T01:38:01.003Z,5.00
2017-12-08T01:40:28.065Z,4.90
2017-12-08T01:42:55.818Z,5.23
2017-12-08T01:45:22.831Z,4.77
2017-12-08T01:47:49.633Z,4.93
2017-12-08T01:50:18.216Z,4.57
2017-12-08T01:52:45.027Z,4.30
2017-12-08T01:55:11.772Z,4.23
2017-12-08T01:57:38.636Z,3.60
2017-12-08T02:00:05.424Z,3.83
2017-12-08T02:02:32.186Z,3.60
2017-12-08T02:04:58.958Z,3.40
2017-12-08T02:07:25.755Z,3.57
2017-12-08T02:09:52.657Z,2.97
2017-12-08T02:12:19.494Z,3.10
2017-12-08T02:14:46.644Z,2.87
2017-12-08T02:17:13.432Z,3.20
2017-12-08T02:19:40.207Z,2.43
2017-12-08T02:22:07.086Z,2.70
2017-12-08T02:24:33.859Z,3.23
2017-12-08T02:27:00.809Z,2.87
2017-12-08T02:29:27.554Z,3.37
2017-12-08T02:31:54.315Z,2.67
2017-12-08T02:34:21.145Z,2.67
2017-12-08T02:36:47.892Z,2.47
2017-12-08T02:39:14.680Z,2.33
2017-12-08T02:41:41.431Z,2.57
2017-12-08T02:44:08.223Z,2.30
2017-12-08T02:46:35.027Z,2.27
2017-12-08T02:49:02.120Z,2.83
2017-12-08T02:51:28.925Z,2.37
2017-12-08T02:53:55.691Z,2.70
2017-12-08T02:56:22.446Z,2.60
2017-12-08T02:58:49.365Z,2.20
2017-12-08T03:01:16.100Z,1.80
2017-12-08T03:03:42.869Z,1.70
2017-12-08T03:06:09.645Z,1.40
2017-12-08T03:08:39.635Z,1.30
2017-12-08T03:11:06.780Z,1.60
2017-12-08T03:13:33.629Z,1.30
2017-12-08T03:16:00.515Z,1.60
2017-12-08T03:18:27.284Z,1.40
2017-12-08T03:20:54.352Z,1.50
2017-12-08T03:23:21.265Z,1.70
2017-12-08T03:25:48.040Z,1.60
2017-12-08T03:28:15.647Z,1.73
2017-12-08T03:30:42.469Z,1.70
2017-12-08T03:33:09.213Z,1.77
2017-12-08T03:35:36.075Z,1.53
2017-12-08T03:38:02.857Z,1.80
2017-12-08T03:40:29.630Z,2.00
2017-12-08T03:42:56.401Z,2.00
2017-12-08T03:45:23.233Z,1.87
2017-12-08T03:47:49.973Z,1.67
2017-12-08T03:50:16.768Z,1.87
2017-12-08T03:52:43.514Z,2.13
2017-12-08T03:55:10.285Z,2.00
2017-12-08T03:57:37.122Z,2.00
2017-12-08T04:00:03.859Z,2.43
2017-12-08T04:02:30.627Z,1.90
2017-12-08T04:04:57.428Z,2.27
2017-12-08T04:07:24.196Z,2.60
2017-12-08T04:09:50.995Z,3.00
2017-12-08T04:12:17.854Z,2.10
2017-12-08T04:14:44.637Z,2.00
2017-12-08T04:17:11.462Z,2.00
2017-12-08T04:19:38.213Z,2.50
2017-12-08T04:22:05.036Z,2.50
2017-12-08T04:24:31.826Z,2.10
2017-12-08T04:26:58.570Z,2.30
2017-12-08T04:29:26.493Z,2.10
2017-12-08T04:31:53.912Z,2.97
2017-12-08T04:34:20.710Z,2.53
2017-12-08T04:36:47.558Z,2.47
2017-12-08T04:39:14.301Z,2.60
2017-12-08T04:41:41.143Z,2.67
2017-12-08T04:44:07.966Z,2.73
2017-12-08T04:46:34.724Z,3.00
2017-12-08T04:49:01.590Z,2.87
2017-12-08T04:51:28.390Z,2.90
2017-12-08T04:53:55.197Z,2.80
2017-12-08T04:56:21.933Z,3.00
2017-12-08T04:58:48.862Z,2.80
2017-12-08T05:01:15.614Z,3.23
2017-12-08T05:03:42.400Z,3.33
2017-12-08T05:06:09.138Z,3.23
2017-12-08T05:08:35.921Z,3.27
2017-12-08T05:11:02.682Z,3.60
2017-12-08T05:13:29.463Z,3.13
2017-12-08T05:15:56.363Z,3.13
2017-12-08T05:18:23.218Z,4.13
2017-12-08T05:20:50.082Z,3.63
2017-12-08T05:23:16.909Z,3.20
2017-12-08T05:25:43.705Z,4.40
2017-12-08T05:28:10.494Z,3.97
2017-12-08T05:30:37.846Z,3.17
2017-12-08T05:33:04.740Z,4.00
2017-12-08T05:35:31.594Z,4.07
2017-12-08T05:37:58.386Z,4.03
2017-12-08T05:40:25.163Z,3.57
2017-12-08T05:42:51.947Z,4.00
2017-12-08T05:45:18.701Z,5.37
2017-12-08T05:47:45.492Z,4.83
2017-12-08T05:50:12.284Z,4.30
2017-12-08T05:52:39.110Z,5.07
2017-12-08T05:55:05.938Z,4.27
2017-12-08T05:57:32.710Z,4.80
2017-12-08T05:59:59.478Z,5.03
2017-12-08T06:02:26.287Z,4.90
2017-12-08T06:04:53.454Z,5.07
2017-12-08T06:07:20.274Z,4.80
2017-12-08T06:09:47.053Z,5.13
2017-12-08T06:12:13.794Z,4.63
2017-12-08T06:14:40.578Z,5.27
2017-12-08T06:17:07.326Z,5.30
2017-12-08T06:19:34.169Z,4.70
2017-12-08T06:22:00.923Z,6.97
2017-12-08T06:24:27.714Z,5.30
2017-12-08T06:26:54.533Z,5.57
2017-12-08T06:29:21.394Z,5.00
2017-12-08T06:31:48.190Z,5.00
2017-12-08T06:34:15.080Z,6.00
2017-12-08T06:36:41.871Z,5.30
2017-12-08T06:39:08.642Z,7.37
2017-12-08T06:41:35.460Z,5.97
2017-12-08T06:44:02.302Z,5.80
2017-12-08T06:46:29.098Z,5.90
2017-12-08T06:48:56.518Z,5.20
2017-12-08T06:51:23.333Z,5.63
2017-12-08T06:53:50.162Z,5.50
2017-12-08T06:56:16.946Z,5.53
2017-12-08T06:58:43.773Z,5.13
2017-12-08T07:01:10.562Z,5.37
2017-12-08T07:03:37.397Z,6.07
2017-12-08T07:06:04.202Z,4.27
2017-12-08T07:08:30.966Z,5.70
2017-12-08T07:10:57.768Z,5.60
2017-12-08T07:13:24.570Z,5.00
2017-12-08T07:15:51.371Z,4.30
2017-12-08T07:18:18.125Z,4.90
2017-12-08T07:20:44.902Z,6.17
2017-12-08T07:23:11.702Z,5.20
2017-12-08T07:25:38.456Z,4.87
2017-12-08T07:28:05.265Z,4.57
2017-12-08T07:30:32.082Z,5.50
2017-12-08T07:32:59.057Z,4.83
2017-12-08T07:35:25.840Z,5.43
2017-12-08T07:37:52.632Z,5.30
2017-12-08T07:40:19.867Z,4.73
2017-12-08T07:42:46.864Z,4.97
2017-12-08T07:45:13.670Z,5.30
2017-12-08T07:47:40.410Z,5.50
2017-12-08T07:50:08.086Z,5.47
2017-12-08T07:52:34.944Z,5.00
2017-12-08T07:55:02.023Z,5.90
2017-12-08T07:57:28.792Z,4.47
2017-12-08T07:59:55.569Z,4.60
2017-12-08T08:02:22.315Z,4.53
2017-12-08T08:04:49.142Z,3.97
2017-12-08T08:07:15.982Z,4.33
2017-12-08T08:09:42.722Z,3.90
2017-12-08T08:12:09.589Z,4.03
2017-12-08T08:14:36.414Z,4.63
2017-12-08T08:17:03.150Z,4.60
2017-12-08T08:19:30.023Z,4.37
2017-12-08T08:21:56.837Z,4.37
2017-12-08T08:24:23.626Z,5.00
2017-12-08T08:26:50.517Z,4.00
2017-12-08T08:29:17.617Z,4.47
2017-12-08T08:31:44.403Z,3.80
2017-12-08T08:34:11.179Z,3.53
2017-12-08T08:36:38.033Z,3.90
2017-12-08T08:39:04.849Z,4.20
2017-12-08T08:41:31.652Z,3.97
2017-12-08T08:43:58.438Z,4.50
2017-12-08T08:46:25.210Z,3.60
2017-12-08T08:48:52.029Z,3.80
2017-12-08T08:51:18.766Z,5.07
2017-12-08T08:53:45.564Z,3.77
2017-12-08T08:56:12.446Z,3.57
2017-12-08T08:58:39.202Z,3.43
2017-12-08T09:01:06.009Z,4.07
2017-12-08T09:03:32.798Z,3.13
2017-12-08T09:05:59.538Z,4.30
2017-12-08T09:08:27.429Z,4.27
2017-12-08T09:10:54.256Z,4.10
2017-12-08T09:13:21.044Z,3.83
2017-12-08T09:15:47.855Z,4.00
2017-12-08T09:18:14.675Z,4.00
2017-12-08T09:20:41.476Z,5.30
2017-12-08T09:23:08.800Z,3.60
2017-12-08T09:25:35.632Z,3.70
2017-12-08T09:28:02.856Z,4.30
2017-12-08T09:30:29.669Z,3.50
2017-12-08T09:32:56.456Z,4.63
2017-12-08T09:35:23.252Z,3.50
2017-12-08T09:37:50.106Z,4.07
2017-12-08T09:40:16.926Z,3.33
2017-12-08T09:42:43.694Z,3.53
2017-12-08T09:45:10.476Z,4.50
2017-12-08T09:47:37.396Z,3.80
2017-12-08T09:50:04.219Z,3.50
2017-12-08T09:52:30.970Z,3.47
2017-12-08T09:54:57.848Z,4.20
2017-12-08T09:57:24.612Z,3.60
2017-12-08T09:59:51.383Z,4.10
2017-12-08T10:02:18.170Z,4.40
2017-12-08T10:04:45.313Z,4.37
2017-12-08T10:07:12.194Z,4.23
2017-12-08T10:09:39.002Z,4.53
2017-12-08T10:12:06.122Z,3.90
2017-12-08T10:14:32.915Z,3.93
2017-12-08T10:16:59.712Z,4.23
2017-12-08T10:19:26.565Z,3.87
2017-12-08T10:21:53.365Z,4.20
2017-12-08T10:24:20.191Z,3.27
2017-12-08T10:26:46.977Z,4.33
2017-12-08T10:29:13.769Z,3.47
2017-12-08T10:31:40.551Z,4.03
2017-12-08T10:34:07.368Z,4.30
2017-12-08T10:36:34.129Z,4.30
2017-12-08T10:39:00.886Z,4.10
2017-12-08T10:41:27.664Z,4.70
2017-12-08T10:43:54.426Z,4.10
2017-12-08T10:46:21.198Z,4.80
2017-12-08T10:48:48.085Z,4.27
2017-12-08T10:51:14.849Z,4.80
2017-12-08T10:53:41.695Z,3.97
2017-12-08T10:56:08.487Z,4.83
2017-12-08T10:58:35.296Z,4.47
2017-12-08T11:01:02.154Z,4.00
2017-12-08T11:03:28.943Z,3.70
2017-12-08T11:05:55.739Z,4.37
2017-12-08T11:08:22.492Z,3.80
2017-12-08T11:10:49.296Z,3.97
2017-12-08T11:13:16.070Z,3.17
2017-12-08T11:15:42.874Z,4.70
2017-12-08T11:18:09.688Z,3.57
2017-12-08T11:20:36.442Z,3.30
2017-12-08T11:23:03.231Z,3.67
2017-12-08T11:25:30.039Z,3.97
2017-12-08T11:27:56.820Z,3.63
2017-12-08T11:30:23.702Z,3.77
2017-12-08T11:32:50.466Z,3.30
2017-12-08T11:35:17.268Z,4.33
2017-12-08T11:37:44.016Z,3.53
2017-12-08T11:40:10.790Z,3.53
2017-12-08T11:42:37.573Z,3.47
2017-12-08T11:45:04.473Z,1.80
2017-12-08T11:47:31.245Z,2.00
2017-12-08T11:49:57.982Z,1.50
2017-12-08T11:52:24.812Z,1.67
2017-12-08T11:54:51.600Z,1.40
2017-12-08T11:57:18.366Z,1.80
2017-12-08T11:59:45.102Z,1.53
2017-12-08T12:02:11.881Z,1.30
2017-12-08T12:04:38.686Z,1.33
2017-12-08T12:07:05.475Z,1.30
2017-12-08T12:09:32.256Z,1.30
2017-12-08T12:11:58.989Z,1.63
2017-12-08T12:14:25.789Z,1.70
2017-12-08T12:16:52.541Z,1.47
2017-12-08T12:19:19.314Z,1.60
2017-12-08T12:21:46.087Z,1.40
2017-12-08T12:24:12.841Z,1.77
2017-12-08T12:26:39.600Z,2.10
2017-12-08T12:29:06.370Z,1.63
2017-12-08T12:31:33.164Z,1.70
2017-12-08T12:34:00.075Z,1.60
2017-12-08T12:36:27.764Z,2.53
2017-12-08T12:38:54.618Z,1.63
2017-12-08T12:41:21.392Z,2.20
2017-12-08T12:43:48.146Z,1.70
2017-12-08T12:46:14.944Z,1.80
2017-12-08T12:48:41.731Z,1.87
2017-12-08T12:51:08.499Z,2.00
2017-12-08T12:53:35.335Z,1.60
2017-12-08T12:56:02.186Z,1.97
2017-12-08T12:58:28.942Z,1.50
2017-12-08T13:00:55.752Z,2.13
2017-12-08T13:03:22.550Z,2.10
2017-12-08T13:05:49.442Z,2.00
2017-12-08T13:08:16.192Z,2.27
2017-12-08T13:10:43.002Z,2.30
2017-12-08T13:13:09.743Z,1.60
2017-12-08T13:15:36.520Z,2.00
2017-12-08T13:18:03.540Z,2.90
2017-12-08T13:20:30.408Z,1.50
2017-12-08T13:22:57.166Z,1.97
2017-12-08T13:25:23.964Z,1.70
2017-12-08T13:27:50.790Z,3.17
2017-12-08T13:30:17.543Z,2.27
2017-12-08T13:32:44.346Z,1.80
2017-12-08T13:35:11.816Z,2.03
2017-12-08T13:37:38.716Z,2.27
2017-12-08T13:40:05.583Z,1.87
2017-12-08T13:42:32.430Z,1.80
2017-12-08T13:44:59.242Z,2.30
2017-12-08T13:47:26.075Z,2.20
2017-12-08T13:49:52.838Z,2.00
2017-12-08T13:52:19.615Z,2.37
2017-12-08T13:54:52.276Z,2.00
2017-12-08T13:57:19.056Z,2.30
2017-12-08T13:59:45.827Z,2.10
2017-12-08T14:02:12.591Z,1.90
2017-12-08T14:04:39.361Z,1.90
2017-12-08T14:07:06.133Z,1.67
2017-12-08T14:09:32.972Z,2.60
2017-12-08T14:11:59.745Z,2.53
2017-12-08T14:14:26.480Z,1.63
2017-12-08T14:16:55.341Z,2.00
2017-12-08T14:19:22.117Z,1.80
2017-12-08T14:21:48.957Z,2.33
2017-12-08T14:24:15.744Z,1.93
2017-12-08T14:26:42.558Z,1.93
2017-12-08T14:29:09.330Z,2.07
2017-12-08T14:31:36.838Z,2.23
2017-12-08T14:34:03.617Z,1.57
2017-12-08T14:36:30.482Z,1.60
2017-12-08T14:38:57.329Z,2.60
2017-12-08T14:41:24.077Z,2.13
2017-12-08T14:43:50.859Z,2.87
2017-12-08T14:46:17.652Z,1.97
2017-12-08T14:48:44.430Z,2.00
2017-12-08T14:51:11.237Z,2.20
2017-12-08T14:53:38.012Z,2.47
2017-12-08T14:56:04.797Z,2.10
2017-12-08T14:58:31.654Z,1.80
2017-12-08T15:00:58.445Z,1.80
2017-12-08T15:03:25.259Z,1.77
2017-12-08T15:05:52.040Z,2.37
2017-12-08T15:08:18.815Z,2.00
2017-12-08T15:10:45.597Z,2.20
2017-12-08T15:13:12.365Z,2.20
2017-12-08T15:15:39.159Z,1.97
2017-12-08T15:18:05.918Z,2.00
2017-12-08T15:20:33.097Z,2.10
2017-12-08T15:22:59.862Z,2.37
2017-12-08T15:25:26.669Z,1.97
2017-12-08T15:27:53.451Z,2.20
2017-12-08T15:30:20.215Z,2.53
2017-12-08T15:32:47.053Z,2.03
2017-12-08T15:35:13.810Z,2.30
2017-12-08T15:37:40.631Z,3.57
2017-12-08T15:40:07.456Z,3.10
2017-12-08T15:42:34.238Z,2.70
2017-12-08T15:45:01.062Z,3.20
2017-12-08T15:47:27.817Z,2.40
2017-12-08T15:49:54.613Z,2.20
2017-12-08T15:52:21.410Z,1.90
2017-12-08T15:54:48.240Z,2.60
2017-12-08T15:57:15.028Z,2.13
2017-12-08T15:59:41.877Z,2.70
2017-12-08T16:02:08.690Z,1.70
2017-12-08T16:04:35.510Z,2.23
2017-12-08T16:07:02.276Z,2.50
2017-12-08T16:09:29.066Z,1.70
2017-12-08T16:11:55.917Z,2.10
2017-12-08T16:14:23.206Z,2.43
2017-12-08T16:16:50.041Z,2.10
2017-12-08T16:19:16.814Z,1.97
2017-12-08T16:21:43.638Z,2.40
2017-12-08T16:24:10.398Z,2.60
2017-12-08T16:26:37.314Z,2.10
2017-12-08T16:29:05.059Z,2.23
2017-12-08T16:31:33.940Z,2.97
2017-12-08T16:34:01.035Z,2.50
2017-12-08T16:36:27.888Z,2.30
2017-12-08T16:38:54.620Z,2.57
2017-12-08T16:41:21.437Z,1.87
2017-12-08T16:43:48.196Z,2.73
2017-12-08T16:46:15.266Z,2.67
2017-12-08T16:48:42.035Z,2.87
2017-12-08T16:51:09.291Z,2.63
2017-12-08T16:53:36.072Z,2.17
2017-12-08T16:56:03.113Z,2.20
2017-12-08T16:58:29.993Z,2.10
2017-12-08T17:00:56.800Z,1.70
2017-12-08T17:03:23.574Z,1.50
2017-12-08T17:05:50.424Z,2.33
2017-12-08T17:08:17.178Z,2.03
2017-12-08T17:10:44.672Z,2.23
2017-12-08T17:13:12.667Z,1.93
2017-12-08T17:15:39.445Z,1.30
2017-12-08T17:18:06.214Z,1.80
2017-12-08T17:20:33.343Z,1.33
2017-12-08T17:23:00.189Z,1.77
2017-12-08T17:25:26.998Z,2.40
2017-12-08T17:27:53.835Z,1.90
2017-12-08T17:30:20.688Z,1.70
2017-12-08T17:32:47.510Z,2.27
2017-12-08T17:35:14.360Z,2.33
2017-12-08T17:37:41.121Z,2.47
2017-12-08T17:40:08.005Z,3.17
2017-12-08T17:42:34.770Z,2.20
2017-12-08T17:45:01.642Z,2.50
2017-12-08T17:47:28.384Z,2.37
2017-12-08T17:49:55.166Z,2.90
2017-12-08T17:52:21.953Z,3.03
2017-12-08T17:54:48.741Z,3.23
2017-12-08T17:57:15.632Z,2.30
2017-12-08T17:59:42.463Z,2.67
2017-12-08T18:02:09.350Z,2.80
2017-12-08T18:04:36.177Z,2.67
2017-12-08T18:07:03.011Z,3.00
2017-12-08T18:09:29.842Z,3.07
2017-12-08T18:11:56.576Z,2.93
2017-12-08T18:14:23.372Z,3.80
2017-12-08T18:16:50.423Z,3.00
2017-12-08T18:19:17.229Z,3.37
2017-12-08T18:21:44.162Z,3.40
2017-12-08T18:24:11.017Z,3.07
2017-12-08T18:26:37.820Z,3.10
2017-12-08T18:29:04.611Z,4.37
2017-12-08T18:31:31.447Z,3.37
2017-12-08T18:33:58.543Z,3.40
2017-12-08T18:36:25.347Z,3.83
2017-12-08T18:38:52.282Z,3.77
2017-12-08T18:41:19.079Z,3.57
2017-12-08T18:43:45.857Z,4.33
2017-12-08T18:46:12.837Z,3.60
2017-12-08T18:48:39.673Z,4.13
2017-12-08T18:51:06.663Z,3.37
2017-12-08T18:53:33.421Z,3.90
2017-12-08T18:56:00.227Z,4.23
2017-12-08T18:58:27.029Z,3.97
2017-12-08T19:00:53.816Z,3.40
2017-12-08T19:03:20.608Z,3.70
2017-12-08T19:05:47.443Z,3.30
2017-12-08T19:08:14.235Z,3.13
2017-12-08T19:10:41.128Z,3.20
2017-12-08T19:13:07.925Z,3.07
2017-12-08T19:15:34.767Z,3.20
2017-12-08T19:18:01.683Z,3.27
2017-12-08T19:20:28.521Z,3.30
2017-12-08T19:22:55.374Z,3.00
2017-12-08T19:25:22.755Z,3.03
2017-12-08T19:27:49.542Z,3.60
2017-12-08T19:30:16.451Z,3.50
2017-12-08T19:32:43.249Z,3.60
2017-12-08T19:35:10.828Z,3.57
2017-12-08T19:37:37.688Z,3.53
2017-12-08T19:40:04.476Z,3.17
2017-12-08T19:42:31.291Z,2.93
2017-12-08T19:44:58.128Z,3.13
2017-12-08T19:47:25.154Z,3.13
2017-12-08T19:49:51.968Z,3.43
2017-12-08T19:52:18.943Z,3.50
2017-12-08T19:54:45.934Z,3.50
2017-12-08T19:57:12.969Z,4.13
2017-12-08T19:59:39.940Z,3.73
2017-12-08T20:02:06.850Z,4.00
2017-12-08T20:04:33.860Z,4.50
2017-12-08T20:07:00.766Z,4.07
2017-12-08T20:09:27.712Z,3.77
2017-12-08T20:11:54.787Z,3.87
2017-12-08T20:14:21.826Z,3.40
2017-12-08T20:16:48.911Z,3.30
2017-12-08T20:19:15.898Z,3.63
2017-12-08T20:21:42.704Z,3.30
2017-12-08T20:24:09.608Z,2.90
2017-12-08T20:26:36.349Z,3.30
2017-12-08T20:29:03.221Z,3.77
2017-12-08T20:31:30.225Z,3.90
2017-12-08T20:33:57.216Z,4.07
2017-12-08T20:36:24.209Z,3.63
2017-12-08T20:38:51.388Z,3.47
2017-12-08T20:41:18.400Z,3.70
2017-12-08T20:43:45.502Z,4.40
2017-12-08T20:46:12.458Z,4.80
2017-12-08T20:48:39.427Z,5.33
2017-12-08T20:51:06.349Z,5.27
2017-12-08T20:53:33.162Z,4.93
2017-12-08T20:56:00.026Z,5.70
2017-12-08T20:58:26.970Z,6.20
2017-12-08T21:00:53.938Z,6.10
2017-12-08T21:03:20.911Z,6.67
2017-12-08T21:05:47.893Z,6.50
2017-12-08T21:08:14.793Z,6.50
2017-12-08T21:10:41.698Z,5.87
2017-12-08T21:13:08.486Z,6.93
2017-12-08T21:15:35.353Z,7.37
2017-12-08T21:18:02.389Z,6.87
2017-12-08T21:20:29.150Z,6.90
2017-12-08T21:22:56.835Z,7.67
2017-12-08T21:25:23.587Z,8.30
2017-12-08T21:27:50.414Z,7.70
2017-12-08T21:30:17.207Z,6.60
2017-12-08T21:32:44.002Z,5.83
2017-12-08T21:35:10.815Z,5.80
2017-12-08T21:37:37.614Z,5.40
2017-12-08T21:40:04.362Z,8.03
2017-12-08T21:42:31.221Z,8.03
2017-12-08T21:44:58.000Z,7.40
2017-12-08T21:47:24.801Z,4.17
2017-12-08T21:49:51.574Z,4.30
2017-12-08T21:52:18.402Z,3.40
2017-12-08T21:54:45.156Z,3.80
2017-12-08T21:57:11.946Z,3.90
2017-12-08T21:59:38.737Z,3.27
2017-12-08T22:02:05.708Z,3.10
2017-12-08T22:04:32.540Z,3.10
2017-12-08T22:06:59.334Z,3.97
2017-12-08T22:09:26.218Z,3.80
2017-12-08T22:11:53.069Z,3.00
2017-12-08T22:14:20.008Z,3.30
2017-12-08T22:16:46.902Z,3.23
2017-12-08T22:19:13.933Z,3.20
2017-12-08T22:21:40.776Z,3.47
2017-12-08T22:24:07.582Z,3.10
2017-12-08T22:26:35.047Z,2.97
2017-12-08T22:29:01.911Z,3.10
2017-12-08T22:31:28.770Z,3.50
2017-12-08T22:33:56.062Z,3.40
2017-12-08T22:36:22.829Z,3.80
2017-12-08T22:38:49.635Z,4.10
2017-12-08T22:41:16.368Z,3.80
2017-12-08T22:43:43.240Z,4.00
2017-12-08T22:46:10.015Z,3.83
2017-12-08T22:48:36.851Z,4.07
2017-12-08T22:51:03.677Z,4.20
2017-12-08T22:53:30.438Z,4.87
2017-12-08T22:55:57.276Z,4.23
2017-12-08T22:58:24.104Z,5.33
2017-12-08T23:00:50.871Z,5.20
2017-12-08T23:03:17.643Z,4.63
2017-12-08T23:05:44.439Z,4.33
2017-12-08T23:08:11.214Z,5.00
2017-12-08T23:10:37.967Z,4.50
2017-12-08T23:13:04.718Z,5.40
2017-12-08T23:15:31.518Z,5.27
2017-12-08T23:17:58.312Z,5.97
2017-12-08T23:20:25.090Z,5.80
2017-12-08T23:22:52.004Z,6.33
2017-12-08T23:25:18.775Z,6.80
2017-12-08T23:27:45.557Z,6.00
2017-12-08T23:30:12.341Z,6.90
2017-12-08T23:32:39.093Z,7.07
2017-12-08T23:35:05.868Z,7.23
2017-12-08T23:37:32.626Z,7.43
2017-12-08T23:39:59.470Z,7.23
2017-12-08T23:42:26.248Z,7.30
2017-12-08T23:44:53.066Z,7.37
2017-12-08T23:47:19.871Z,8.57
2017-12-08T23:49:46.697Z,7.53
2017-12-08T23:52:13.505Z,7.37
2017-12-08T23:54:40.334Z,7.40
2017-12-08T23:57:07.150Z,7.47
2017-12-08T23:59:33.928Z,7.63
